Time;durP1;ratioP1;P1;durP2;ratioP2;P2;SDS_P1;SDS_P2;PMS_P1;PMS_P2;Temp;Humidity;BMP_temperature;BMP_pressure;BME280_temperature;BME280_humidity;BME280_pressure;Samples;Min_cycle;Max_cycle;Signal;HPM_P1;HPM_P2
2022/11/01 00:00:09;;;;;;;;;2.67;1.00;;;;;18.03;64.35;100675.09;5068441;28;45884;-66
2022/11/01 00:02:35;;;;;;;;;1.00;1.00;;;;;18.08;64.24;100704.13;5068831;28;45343;-66
2022/11/01 00:05:01;;;;;;;;;2.33;1.00;;;;;18.09;64.08;100711.19;5074647;28;47182;-65
2022/11/01 00:07:26;;;;;;;;;1.00;1.00;;;;;18.03;63.89;100712.19;5079527;28;45421;-65
2022/11/01 00:09:52;;;;;;;;;1.33;1.00;;;;;18.07;63.03;100721.81;5067211;28;45480;-67
2022/11/01 00:12:17;;;;;;;;;2.00;1.00;;;;;17.98;62.98;100719.44;5068718;28;45426;-65
2022/11/01 00:14:43;;;;;;;;;1.00;1.00;;;;;18.00;62.83;100734.38;5068655;28;45949;-65
2022/11/01 00:17:08;;;;;;;;;1.00;1.00;;;;;17.99;61.71;100740.59;5072917;28;45709;-67
2022/11/01 00:19:34;;;;;;;;;0.33;0.33;;;;;17.90;61.42;100737.34;5072632;28;45326;-66
2022/11/01 00:22:01;;;;;;;;;1.00;0.00;;;;;17.87;60.85;100735.66;5066387;28;45913;-66
2022/11/01 00:24:30;;;;;;;;;1.00;1.00;;;;;17.81;60.53;100733.16;5056844;28;46790;-65
2022/11/01 00:26:56;;;;;;;;;1.00;1.00;;;;;17.85;59.90;100733.94;5075668;28;45567;-64
2022/11/01 00:29:22;;;;;;;;;0.00;0.00;;;;;17.78;59.91;100743.81;5068464;28;45417;-64
2022/11/01 00:31:48;;;;;;;;;0.00;0.00;;;;;17.78;59.90;100754.41;5060643;27;45432;-65
2022/11/01 00:34:14;;;;;;;;;1.00;1.00;;;;;17.76;59.47;100750.94;5051154;28;45445;-64
2022/11/01 00:36:40;;;;;;;;;1.00;0.00;;;;;17.68;59.51;100753.78;5072728;28;45483;-64
2022/11/01 00:39:06;;;;;;;;;0.00;0.00;;;;;17.69;59.21;100758.16;5078790;28;45427;-65
2022/11/01 00:41:32;;;;;;;;;0.00;0.00;;;;;17.66;59.02;100766.22;5079590;27;45590;-65
2022/11/01 00:43:58;;;;;;;;;0.00;0.00;;;;;17.63;58.95;100782.19;5062182;28;46671;-61
2022/11/01 00:46:24;;;;;;;;;3.00;0.00;;;;;17.54;58.76;100780.66;5065763;28;45453;-63
2022/11/01 00:48:49;;;;;;;;;2.67;0.33;;;;;17.52;59.08;100786.88;5078108;27;45392;-61
2022/11/01 00:51:15;;;;;;;;;1.33;0.33;;;;;17.48;58.76;100790.50;5065081;28;45679;-62
2022/11/01 00:53:41;;;;;;;;;0.00;0.00;;;;;17.51;58.29;100793.06;5064789;28;45949;-61
2022/11/01 00:56:07;;;;;;;;;1.67;0.00;;;;;17.47;57.54;100813.47;5061072;28;45357;-62
2022/11/01 00:58:34;;;;;;;;;4.00;1.00;;;;;17.35;57.82;100804.06;5076531;28;45252;-64
2022/11/01 01:01:00;;;;;;;;;1.00;1.00;;;;;17.25;57.65;100805.22;5042849;28;45778;-68
2022/11/01 01:03:25;;;;;;;;;1.00;1.00;;;;;17.32;56.72;100820.03;5065143;28;45528;-63
2022/11/01 01:05:52;;;;;;;;;0.33;0.00;;;;;17.28;56.30;100839.53;5072390;28;45505;-61
2022/11/01 01:08:18;;;;;;;;;0.00;0.00;;;;;17.19;56.00;100833.59;5074722;28;45377;-63
2022/11/01 01:10:44;;;;;;;;;0.00;0.00;;;;;17.12;56.00;100832.88;5075968;28;45397;-61
2022/11/01 01:13:10;;;;;;;;;0.00;0.00;;;;;17.07;56.06;100856.78;5078160;28;45402;-61
2022/11/01 01:15:39;;;;;;;;;3.00;0.00;;;;;17.03;56.00;100863.06;5042616;28;45532;-62
2022/11/01 01:18:05;;;;;;;;;1.00;0.00;;;;;17.01;55.88;100866.63;5072262;28;46005;-61
2022/11/01 01:20:31;;;;;;;;;0.67;0.00;;;;;16.96;55.85;100858.81;5074695;28;45466;-60
2022/11/01 01:22:57;;;;;;;;;0.00;0.00;;;;;16.91;55.77;100866.84;5054472;27;45461;-62
2022/11/01 01:25:23;;;;;;;;;1.00;0.00;;;;;16.84;55.70;100869.66;5073062;28;45427;-61
2022/11/01 01:27:49;;;;;;;;;0.00;0.00;;;;;16.82;56.00;100868.81;5061293;28;45895;-61
2022/11/01 01:30:15;;;;;;;;;0.00;0.00;;;;;16.80;56.01;100883.84;5071891;28;45734;-61
2022/11/01 01:32:41;;;;;;;;;0.00;0.00;;;;;16.77;56.08;100892.69;5062587;28;46033;-60
2022/11/01 01:35:08;;;;;;;;;2.00;1.00;;;;;16.67;56.11;100875.28;5067327;28;45455;-62
2022/11/01 01:37:34;;;;;;;;;1.00;0.00;;;;;16.68;56.17;100877.00;5063027;27;45548;-62
2022/11/01 01:40:00;;;;;;;;;0.67;0.00;;;;;16.72;56.40;100894.56;5073102;28;45814;-60
2022/11/01 01:42:28;;;;;;;;;0.00;0.00;;;;;16.70;55.80;100897.25;5059460;28;47668;-62
2022/11/01 01:44:54;;;;;;;;;1.00;0.00;;;;;16.70;56.22;100904.31;5073700;28;45436;-62
2022/11/01 01:47:28;;;;;;;;;0.00;0.00;;;;;16.67;56.01;100905.25;5073016;27;45409;-61
2022/11/01 01:50:06;;;;;;;;;2.67;0.00;;;;;16.60;55.39;100900.97;5077379;28;45383;-63
2022/11/01 01:52:37;;;;;;;;;3.00;0.00;;;;;16.64;55.62;100915.88;5073724;28;46161;-61
2022/11/01 01:55:07;;;;;;;;;0.00;0.00;;;;;16.61;55.19;100918.59;5076111;28;45473;-62
2022/11/01 01:57:34;;;;;;;;;0.00;0.00;;;;;16.53;55.00;100912.56;5073258;28;45341;-60
2022/11/01 02:00:00;;;;;;;;;0.00;0.00;;;;;16.50;55.12;100928.50;5056696;28;45570;-64
2022/11/01 02:02:26;;;;;;;;;0.00;0.00;;;;;16.47;55.03;100939.16;5063510;28;45394;-63
2022/11/01 02:04:58;;;;;;;;;0.00;0.00;;;;;16.47;55.53;100937.38;5075994;27;45375;-64
2022/11/01 02:07:24;;;;;;;;;1.33;0.00;;;;;16.48;55.32;100951.47;5072847;27;45669;-66
2022/11/01 02:09:50;;;;;;;;;2.00;0.33;;;;;16.45;55.37;100936.53;5076661;28;45859;-65
2022/11/01 02:12:16;;;;;;;;;0.00;0.00;;;;;16.47;55.29;100955.03;5077238;27;45554;-61
2022/11/01 02:14:44;;;;;;;;;0.00;0.00;;;;;16.44;55.62;100957.69;5065137;28;45327;-62
2022/11/01 02:17:50;;;;;;;;;1.00;0.00;;;;;16.45;55.58;100955.03;5070900;28;45545;-61
2022/11/01 02:20:24;;;;;;;;;1.00;0.00;;;;;16.44;56.18;100970.91;5071383;28;45459;-61
2022/11/01 02:23:22;;;;;;;;;1.00;0.00;;;;;16.38;55.78;100969.28;5077010;28;45660;-64
2022/11/01 02:26:00;;;;;;;;;0.00;0.00;;;;;16.37;55.89;100975.44;5077556;28;45426;-60
2022/11/01 02:28:28;;;;;;;;;0.00;0.00;;;;;16.36;56.40;100973.72;5077668;28;45464;-65
2022/11/01 02:30:56;;;;;;;;;2.67;0.33;;;;;16.31;56.01;100972.91;5074128;28;45425;-63
2022/11/01 02:33:33;;;;;;;;;0.00;0.00;;;;;16.16;55.88;100970.53;5073616;28;45456;-61
2022/11/01 02:36:07;;;;;;;;;0.00;0.00;;;;;16.14;56.52;100972.34;5075690;28;45534;-62
2022/11/01 02:38:45;;;;;;;;;0.00;0.00;;;;;16.12;56.70;100990.88;5072928;27;45344;-61
2022/11/01 02:41:19;;;;;;;;;1.00;0.00;;;;;16.05;56.60;100984.81;5076814;28;45404;-60
2022/11/01 02:43:59;;;;;;;;;1.00;0.33;;;;;16.03;56.15;100983.97;5077621;28;46433;-61
2022/11/01 02:49:15;;;;;;;;;2.00;0.00;;;;;15.96;55.68;100984.97;5073432;28;45446;-61
2022/11/01 02:51:43;;;;;;;;;0.67;0.00;;;;;15.94;55.85;100986.75;5076636;28;45394;-61
2022/11/01 02:54:18;;;;;;;;;0.33;0.33;;;;;15.89;55.96;100984.19;5072836;28;46391;-62
2022/11/01 02:56:44;;;;;;;;;2.00;0.33;;;;;15.84;55.77;100977.22;5072762;28;45486;-61
2022/11/01 02:59:18;;;;;;;;;3.00;0.00;;;;;15.80;55.70;100987.00;5075530;27;45410;-62
2022/11/01 03:01:52;;;;;;;;;2.00;0.00;;;;;15.71;55.82;100971.28;5081359;27;45492;-61
2022/11/01 03:04:18;;;;;;;;;0.00;0.00;;;;;15.72;56.44;100986.22;5077238;27;46092;-61
2022/11/01 03:06:54;;;;;;;;;0.67;0.00;;;;;15.77;56.24;100996.72;5076500;27;45771;-62
2022/11/01 03:09:20;;;;;;;;;0.67;0.67;;;;;15.75;56.29;100998.50;5081122;28;45477;-61
2022/11/01 03:11:59;;;;;;;;;1.67;0.00;;;;;15.72;56.37;100999.41;5062327;28;45361;-61
2022/11/01 03:14:27;;;;;;;;;0.00;0.00;;;;;15.73;56.54;101010.84;5077667;28;45538;-62
2022/11/01 03:17:18;;;;;;;;;0.00;0.00;;;;;15.69;56.42;101012.66;5075790;27;45604;-60
2022/11/01 03:19:59;;;;;;;;;1.00;0.00;;;;;15.61;56.65;101004.84;5076845;27;45648;-61
2022/11/01 03:22:42;;;;;;;;;0.00;0.00;;;;;15.63;56.69;101026.78;5056415;28;45816;-62
2022/11/01 03:25:38;;;;;;;;;1.00;0.00;;;;;15.64;56.91;101040.88;5075863;28;46689;-63
2022/11/01 03:28:15;;;;;;;;;0.00;0.00;;;;;15.63;56.70;101032.06;5080334;28;45425;-61
2022/11/01 03:30:46;;;;;;;;;1.00;1.00;;;;;15.58;56.80;101040.97;5077945;28;45537;-62
2022/11/01 03:33:14;;;;;;;;;2.33;0.00;;;;;15.45;57.33;101035.00;5076259;28;45564;-64
2022/11/01 03:35:44;;;;;;;;;1.00;0.00;;;;;15.44;57.37;101052.56;5076211;27;45601;-62
2022/11/01 03:38:14;;;;;;;;;3.00;0.00;;;;;15.46;57.56;101053.41;5080188;28;45729;-65
2022/11/01 03:40:46;;;;;;;;;2.00;0.33;;;;;15.36;57.45;101053.59;5078673;27;45849;-61
2022/11/01 03:43:15;;;;;;;;;1.00;0.00;;;;;15.34;57.86;101052.72;5075916;27;45474;-60
2022/11/01 03:45:41;;;;;;;;;2.33;0.00;;;;;15.31;57.61;101061.56;5075769;28;45995;-63
2022/11/01 03:48:07;;;;;;;;;0.00;0.00;;;;;15.35;57.72;101070.28;5075646;28;45561;-62
2022/11/01 03:50:33;;;;;;;;;1.00;0.00;;;;;15.30;57.64;101083.53;5076193;28;45456;-62
2022/11/01 03:52:59;;;;;;;;;0.00;0.00;;;;;15.25;57.82;101080.94;5076650;28;45436;-65
2022/11/01 03:55:25;;;;;;;;;0.00;0.00;;;;;15.25;58.23;101096.78;5079170;27;46204;-61
2022/11/01 03:57:56;;;;;;;;;1.00;0.00;;;;;15.24;58.32;101107.38;5077358;27;45932;-66
2022/11/01 04:00:29;;;;;;;;;0.67;0.67;;;;;15.18;58.49;101108.31;5076233;28;45482;-61
2022/11/01 04:02:56;;;;;;;;;0.00;0.00;;;;;15.20;58.29;101117.06;5076009;28;45359;-62
2022/11/01 04:05:24;;;;;;;;;2.33;0.00;;;;;15.23;58.52;101117.06;5075026;28;45326;-61
2022/11/01 04:07:52;;;;;;;;;2.00;0.00;;;;;15.14;58.61;101119.81;5075092;28;45453;-62
2022/11/01 04:10:19;;;;;;;;;0.00;0.00;;;;;15.11;58.77;101124.22;5056710;28;45615;-62
2022/11/01 04:12:47;;;;;;;;;0.00;0.00;;;;;15.03;58.44;101122.53;5075601;28;45327;-61
2022/11/01 04:20:54;;;;;;;;;0.00;0.00;;;;;15.10;58.93;101151.50;5069092;28;45493;-61
2022/11/01 04:23:20;;;;;;;;;0.00;0.00;;;;;15.03;58.90;101143.63;5079602;28;45612;-61
2022/11/01 04:25:46;;;;;;;;;1.00;0.33;;;;;15.08;58.51;101158.56;5060254;28;46883;-63
2022/11/01 04:28:12;;;;;;;;;0.00;0.00;;;;;15.00;59.23;101163.91;5075370;28;45491;-64
2022/11/01 04:30:38;;;;;;;;;0.00;0.00;;;;;15.00;59.00;101167.41;5062879;28;45428;-62
2022/11/01 04:33:04;;;;;;;;;2.00;1.00;;;;;14.94;58.99;101170.09;5074151;28;45394;-62
2022/11/01 04:35:29;;;;;;;;;0.00;0.00;;;;;14.82;59.24;101171.09;5057665;28;47602;-63
2022/11/01 04:37:57;;;;;;;;;3.00;0.00;;;;;14.86;59.63;101177.22;5075242;27;45418;-61
2022/11/01 04:40:22;;;;;;;;;1.67;0.00;;;;;14.76;59.03;101160.59;5075897;28;45437;-63
2022/11/01 04:42:48;;;;;;;;;0.00;0.00;;;;;14.80;58.93;101183.41;5062364;28;45478;-61
2022/11/01 04:45:13;;;;;;;;;3.00;0.00;;;;;14.82;59.57;101194.81;5077424;28;45452;-61
2022/11/01 04:47:49;;;;;;;;;2.00;0.00;;;;;14.77;59.42;101191.34;5075225;28;45737;-64
2022/11/01 04:50:15;;;;;;;;;0.33;0.33;;;;;14.73;59.63;101191.38;5058469;28;45657;-62
2022/11/01 04:52:41;;;;;;;;;1.67;0.33;;;;;14.61;60.05;101195.00;5075421;27;45417;-61
2022/11/01 04:55:07;;;;;;;;;0.00;0.00;;;;;14.59;60.08;101192.38;5078339;28;46109;-60
2022/11/01 04:57:42;;;;;;;;;1.00;1.00;;;;;14.61;59.69;101208.16;5074628;27;45461;-61
2022/11/01 05:00:10;;;;;;;;;1.33;0.00;;;;;14.53;59.98;101208.19;5075589;28;45674;-64
2022/11/01 05:02:37;;;;;;;;;3.00;0.33;;;;;14.55;60.08;101217.00;5056853;28;45559;-64
2022/11/01 05:05:05;;;;;;;;;0.00;0.00;;;;;14.61;60.47;101229.25;5074730;27;46250;-60
2022/11/01 05:07:30;;;;;;;;;0.00;0.00;;;;;14.59;60.02;101210.84;5074153;28;45541;-61
2022/11/01 05:09:56;;;;;;;;;0.00;0.00;;;;;14.62;59.88;101225.75;5075006;28;45548;-61
2022/11/01 05:12:21;;;;;;;;;1.67;1.00;;;;;14.56;60.22;101223.16;5076149;28;45799;-62
2022/11/01 05:14:47;;;;;;;;;3.33;1.00;;;;;14.51;60.48;101212.59;5076474;28;46529;-61
2022/11/01 05:17:12;;;;;;;;;0.67;0.67;;;;;14.48;61.13;101227.56;5074824;28;45449;-62
2022/11/01 05:19:38;;;;;;;;;0.67;0.33;;;;;14.40;60.91;101239.03;5077786;27;45556;-62
2022/11/01 05:22:04;;;;;;;;;1.67;1.00;;;;;14.41;61.24;101238.13;5073882;27;45413;-61
2022/11/01 05:24:29;;;;;;;;;0.00;0.00;;;;;14.49;61.31;101250.41;5060361;28;45521;-63
2022/11/01 05:26:55;;;;;;;;;2.00;1.00;;;;;14.39;60.74;101233.75;5061833;28;45557;-62
2022/11/01 05:29:20;;;;;;;;;5.67;1.33;;;;;14.40;61.18;101249.56;5076128;27;45481;-64
2022/11/01 05:31:46;;;;;;;;;0.00;0.00;;;;;14.36;61.45;101245.19;5074885;28;45286;-60
2022/11/01 05:34:11;;;;;;;;;0.33;0.33;;;;;14.30;61.39;101250.50;5077517;28;45546;-60
2022/11/01 05:36:37;;;;;;;;;1.00;0.00;;;;;14.18;61.63;101246.16;5077517;27;45500;-62
2022/11/01 05:39:03;;;;;;;;;3.00;1.67;;;;;14.16;61.86;101244.41;5074629;28;46546;-60
2022/11/01 05:41:28;;;;;;;;;3.00;0.33;;;;;14.13;62.42;101254.97;5056551;28;45433;-61
2022/11/01 05:43:54;;;;;;;;;3.33;0.67;;;;;14.14;62.22;101259.34;5073810;27;45449;-60
2022/11/01 05:46:19;;;;;;;;;2.67;1.00;;;;;14.17;61.81;101257.59;5074107;27;45450;-61
2022/11/01 05:48:45;;;;;;;;;2.00;1.00;;;;;14.13;62.46;101262.88;5074363;28;45951;-61
2022/11/01 05:51:11;;;;;;;;;0.67;0.00;;;;;14.16;62.15;101270.75;5074231;27;45516;-62
2022/11/01 05:53:36;;;;;;;;;4.00;1.00;;;;;14.12;61.40;101261.13;5073879;28;45398;-62
2022/11/01 05:56:02;;;;;;;;;1.00;0.00;;;;;14.18;61.99;101271.63;5073791;27;45432;-61
2022/11/01 05:58:28;;;;;;;;;2.33;0.00;;;;;14.13;62.11;101258.47;5075717;28;45415;-61
2022/11/01 06:01:03;;;;;;;;;1.67;0.33;;;;;14.09;62.46;101262.00;5075541;28;45409;-62
2022/11/01 06:03:29;;;;;;;;;1.67;1.00;;;;;14.05;62.11;101262.00;5055341;28;45628;-62
2022/11/01 06:05:55;;;;;;;;;1.00;0.67;;;;;14.02;62.73;101283.09;5077194;28;45438;-62
2022/11/01 06:08:20;;;;;;;;;4.00;1.00;;;;;14.02;62.54;101273.44;5077662;28;45566;-61
2022/11/01 06:10:46;;;;;;;;;1.00;1.00;;;;;13.92;63.53;101269.09;5074351;28;45702;-64
2022/11/01 06:13:11;;;;;;;;;0.67;0.33;;;;;13.83;63.12;101270.00;5073366;28;45711;-63
2022/11/01 06:15:37;;;;;;;;;2.50;1.50;;;;;13.87;63.15;101261.22;5055296;28;45580;-61
2022/11/01 06:18:03;;;;;;;;;0.00;0.00;;;;;13.89;62.80;101274.38;5077111;27;45326;-61
2022/11/01 06:20:31;;;;;;;;;1.33;0.33;;;;;13.82;62.97;101276.16;5074078;28;45504;-62
2022/11/01 06:23:00;;;;;;;;;1.00;0.00;;;;;13.71;63.22;101285.81;5055587;28;45801;-61
2022/11/01 06:25:26;;;;;;;;;2.33;1.33;;;;;13.64;63.87;101277.06;5074182;28;45470;-61
2022/11/01 06:27:53;;;;;;;;;5.00;1.00;;;;;13.58;64.11;101285.84;5075785;27;45335;-61
2022/11/01 06:30:19;;;;;;;;;2.33;0.00;;;;;13.58;64.25;101296.38;5077677;28;45351;-61
2022/11/01 06:32:45;;;;;;;;;2.67;1.00;;;;;13.64;63.75;101290.22;5077005;28;45478;-60
2022/11/01 06:35:11;;;;;;;;;3.00;1.00;;;;;13.62;63.99;101299.91;5078182;28;45401;-60
2022/11/01 06:37:37;;;;;;;;;2.33;0.33;;;;;13.61;63.95;101300.75;5077978;28;45577;-62
2022/11/01 06:40:04;;;;;;;;;0.00;0.00;;;;;13.46;63.80;101275.34;5059782;28;45328;-62
2022/11/01 06:42:30;;;;;;;;;2.00;0.33;;;;;13.50;64.42;101310.41;5056455;28;47025;-63
2022/11/01 06:44:55;;;;;;;;;4.00;1.00;;;;;13.52;64.12;101301.63;5072324;28;45501;-63
2022/11/01 06:47:21;;;;;;;;;2.33;0.00;;;;;13.54;64.60;101302.50;5076582;27;45280;-61
2022/11/01 06:49:46;;;;;;;;;2.33;0.33;;;;;13.58;64.53;101301.63;5058839;28;45386;-62
2022/11/01 06:52:12;;;;;;;;;3.33;1.00;;;;;13.63;63.88;101314.81;5072583;28;45497;-61
2022/11/01 06:54:37;;;;;;;;;3.00;0.00;;;;;13.66;64.13;101319.19;5073062;28;45675;-63
2022/11/01 06:57:03;;;;;;;;;0.67;0.67;;;;;13.65;63.85;101312.19;5073446;28;45362;-60
2022/11/01 06:59:28;;;;;;;;;2.67;0.00;;;;;13.69;64.27;101324.44;5073553;27;45429;-62
2022/11/01 07:01:54;;;;;;;;;0.33;0.33;;;;;13.67;64.62;101327.09;5076709;27;45584;-63
2022/11/01 07:04:22;;;;;;;;;2.33;1.33;;;;;13.56;64.08;101300.75;5058307;28;45465;-61
2022/11/01 07:06:48;;;;;;;;;2.00;1.00;;;;;13.76;64.02;101337.59;5073504;28;45431;-63
2022/11/01 07:09:13;;;;;;;;;2.33;1.00;;;;;13.80;63.83;101338.47;5072932;28;45395;-62
2022/11/01 07:11:39;;;;;;;;;2.67;0.00;;;;;13.75;63.79;101332.34;5072419;28;45577;-65
2022/11/01 07:14:05;;;;;;;;;2.67;1.00;;;;;13.70;64.42;101327.06;5072574;28;45584;-62
2022/11/01 07:16:31;;;;;;;;;0.67;0.33;;;;;13.75;63.67;101335.84;5076099;28;45388;-61
2022/11/01 07:18:57;;;;;;;;;2.67;1.33;;;;;13.81;63.93;101336.69;5073041;27;45349;-65
2022/11/01 07:21:23;;;;;;;;;0.67;0.67;;;;;13.84;63.67;101334.94;5072425;28;45422;-61
2022/11/01 07:23:49;;;;;;;;;3.00;1.00;;;;;13.86;64.03;101334.97;5072292;28;45428;-60
2022/11/01 07:26:15;;;;;;;;;3.00;1.00;;;;;13.95;63.59;101346.34;5072726;28;45746;-62
2022/11/01 07:28:41;;;;;;;;;4.67;1.00;;;;;14.03;63.20;101356.84;5072919;28;45523;-63
2022/11/01 07:31:06;;;;;;;;;2.00;1.00;;;;;14.06;62.94;101367.38;5072626;28;46967;-64
2022/11/01 07:33:32;;;;;;;;;2.00;1.00;;;;;14.02;63.48;101363.00;5076737;28;45463;-61
2022/11/01 07:35:59;;;;;;;;;1.67;1.67;;;;;14.02;62.83;101355.09;5057637;28;45492;-62
2022/11/01 07:38:24;;;;;;;;;5.00;2.00;;;;;14.14;63.09;101377.88;5072742;28;45926;-60
2022/11/01 07:40:52;;;;;;;;;3.00;1.00;;;;;14.13;62.87;101373.50;5072529;28;45495;-63
2022/11/01 07:43:18;;;;;;;;;4.00;1.67;;;;;14.23;62.61;101377.00;5054032;28;45372;-62
2022/11/01 07:45:44;;;;;;;;;3.00;0.67;;;;;14.36;62.39;101376.97;5055840;27;45381;-64
2022/11/01 07:48:12;;;;;;;;;1.33;0.33;;;;;14.45;61.83;101381.34;5080409;28;45340;-64
2022/11/01 07:50:39;;;;;;;;;3.00;0.33;;;;;14.55;62.01;101379.56;5061686;28;45749;-64
2022/11/01 07:53:08;;;;;;;;;1.67;0.33;;;;;14.52;61.90;101387.44;5059105;28;45513;-61
2022/11/01 07:55:35;;;;;;;;;1.00;1.00;;;;;14.65;61.21;101389.19;5075771;28;45385;-64
2022/11/01 07:58:02;;;;;;;;;4.33;1.00;;;;;14.75;60.90;101393.53;5078534;27;45343;-59
2022/11/01 08:00:28;;;;;;;;;3.00;1.33;;;;;14.86;61.10;101400.53;5079639;28;45423;-64
2022/11/01 08:03:02;;;;;;;;;0.33;0.33;;;;;14.91;60.60;101401.38;5079702;27;45481;-63
2022/11/01 08:05:28;;;;;;;;;4.00;1.00;;;;;15.01;60.49;101397.78;5078295;28;45696;-63
2022/11/01 08:07:54;;;;;;;;;5.33;1.00;;;;;14.99;59.92;101392.50;5075788;28;45445;-65
2022/11/01 08:10:20;;;;;;;;;4.00;1.00;;;;;15.12;59.35;101410.94;5075737;28;45865;-64
2022/11/01 08:12:45;;;;;;;;;1.33;0.67;;;;;15.24;59.29;101403.78;5075580;28;45480;-64
2022/11/01 08:15:11;;;;;;;;;4.00;2.33;;;;;15.44;59.17;101394.84;5080146;28;45449;-62
2022/11/01 08:17:37;;;;;;;;;4.67;0.00;;;;;15.63;58.16;101404.38;5079998;28;45347;-65
2022/11/01 08:20:03;;;;;;;;;3.00;2.00;;;;;15.67;58.04;101415.81;5076798;28;46099;-61
2022/11/01 08:22:28;;;;;;;;;1.00;0.67;;;;;15.78;57.79;101410.44;5076599;28;45417;-62
2022/11/01 08:24:54;;;;;;;;;1.67;1.00;;;;;15.95;57.20;101411.19;5078404;28;45298;-65
2022/11/01 08:27:19;;;;;;;;;2.33;0.33;;;;;16.02;56.85;101394.38;5076447;28;45585;-60
2022/11/01 08:29:45;;;;;;;;;1.00;0.00;;;;;16.21;57.18;101404.78;5074764;28;46182;-60
2022/11/01 08:32:11;;;;;;;;;1.00;1.00;;;;;16.42;56.10;101399.25;5075255;27;45283;-65
2022/11/01 08:34:36;;;;;;;;;0.00;0.00;;;;;16.52;55.57;101400.88;5077433;28;45755;-61
2022/11/01 08:37:02;;;;;;;;;1.33;1.33;;;;;16.73;55.62;101396.22;5076788;28;45377;-60
2022/11/01 08:39:27;;;;;;;;;1.00;1.00;;;;;17.17;54.89;101387.69;5056781;28;46863;-61
2022/11/01 08:41:53;;;;;;;;;3.33;2.00;;;;;17.86;53.03;101384.84;5078309;27;45461;-63
2022/11/01 08:44:19;;;;;;;;;0.67;0.00;;;;;19.24;49.21;101371.38;5079674;28;45455;-61
2022/11/01 08:46:45;;;;;;;;;1.00;1.00;;;;;20.96;45.57;101399.56;5078361;28;45398;-61
2022/11/01 08:49:11;;;;;;;;;4.00;1.00;;;;;21.99;43.30;101382.88;5074905;28;45346;-64
2022/11/01 08:51:37;;;;;;;;;2.33;1.00;;;;;22.98;40.54;101401.50;5074728;28;45557;-63
2022/11/01 08:54:04;;;;;;;;;4.00;1.00;;;;;23.24;40.78;101389.78;5074472;27;45528;-62
2022/11/01 08:56:30;;;;;;;;;2.00;1.00;;;;;23.48;39.59;101379.88;5056440;28;45729;-61
2022/11/01 08:58:56;;;;;;;;;4.00;1.00;;;;;24.26;38.68;101383.69;5074767;27;45458;-62
2022/11/01 09:01:23;;;;;;;;;1.00;1.00;;;;;25.58;36.29;101372.09;5074217;27;45503;-62
2022/11/01 09:03:49;;;;;;;;;3.25;1.00;;;;;26.35;35.22;101380.66;5056309;28;45525;-61
2022/11/01 09:06:16;;;;;;;;;2.25;1.00;;;;;27.37;33.73;101367.81;5074335;28;45531;-62
2022/11/01 09:08:41;;;;;;;;;0.00;0.00;;;;;27.97;32.44;101377.72;5073468;28;45662;-61
2022/11/01 09:11:07;;;;;;;;;4.00;1.75;;;;;29.01;30.88;101373.84;5069991;27;45469;-60
2022/11/01 09:13:33;;;;;;;;;1.00;1.00;;;;;29.84;30.36;101375.56;5073351;27;45319;-61
2022/11/01 09:16:03;;;;;;;;;4.00;1.00;;;;;30.68;28.26;101368.75;5074095;27;45421;-61
2022/11/01 09:18:29;;;;;;;;;0.80;0.80;;;;;30.99;28.07;101372.78;5055154;28;47324;-61
2022/11/01 09:20:55;;;;;;;;;1.75;1.75;;;;;31.58;27.14;101378.25;5073037;27;45458;-62
2022/11/01 09:23:21;;;;;;;;;4.80;1.00;;;;;31.23;26.48;101383.66;5073343;28;46135;-65
2022/11/01 09:25:47;;;;;;;;;3.60;2.00;;;;;31.41;25.49;101382.25;5074134;27;45295;-62
2022/11/01 09:28:15;;;;;;;;;1.00;0.50;;;;;31.61;26.87;101379.91;5077714;28;46294;-60
2022/11/01 09:30:41;;;;;;;;;1.20;1.00;;;;;32.70;25.40;101374.91;5077195;27;45449;-63
2022/11/01 09:33:07;;;;;;;;;2.25;1.50;;;;;32.68;24.15;101381.44;5059248;28;45487;-65
2022/11/01 09:35:33;;;;;;;;;1.80;0.00;;;;;32.88;24.83;101382.50;5078126;28;45558;-62
2022/11/01 09:38:00;;;;;;;;;1.00;1.00;;;;;33.55;24.14;101381.44;5078415;27;45419;-62
2022/11/01 09:40:42;;;;;;;;;1.20;1.00;;;;;33.70;23.72;101393.78;5078604;28;45562;-62
2022/11/01 09:43:12;;;;;;;;;0.40;0.40;;;;;34.11;23.49;101381.19;5077104;28;45507;-66
2022/11/01 09:45:38;;;;;;;;;4.00;0.20;;;;;34.08;22.25;101392.31;5040077;28;45427;-62
2022/11/01 09:48:06;;;;;;;;;3.00;1.00;;;;;34.13;23.36;101386.50;5073790;28;45874;-65
2022/11/01 09:50:35;;;;;;;;;2.00;1.00;;;;;34.82;22.86;101405.72;5073886;27;45906;-63
2022/11/01 09:53:06;;;;;;;;;1.20;1.00;;;;;34.70;22.61;101389.63;5073896;28;45520;-62
2022/11/01 09:56:04;;;;;;;;;4.00;1.00;;;;;34.77;22.01;101393.53;5056124;28;45674;-60
2022/11/01 09:58:48;;;;;;;;;1.00;0.40;;;;;35.07;21.69;101400.72;5073776;27;46255;-65
2022/11/01 10:01:54;;;;;;;;;1.40;1.00;;;;;35.64;21.20;101392.81;5073735;28;46185;-63
2022/11/01 10:04:45;;;;;;;;;1.00;1.00;;;;;35.65;20.47;101398.13;5075687;27;45458;-62
2022/11/01 10:07:16;;;;;;;;;2.20;1.00;;;;;36.45;21.32;101390.50;5058636;28;45365;-62
2022/11/01 10:10:17;;;;;;;;;3.20;0.40;;;;;37.53;20.18;101407.97;5073829;28;46201;-62
2022/11/01 10:12:59;;;;;;;;;0.40;0.00;;;;;38.17;19.21;101397.72;5035141;28;45453;-62
2022/11/01 10:15:39;;;;;;;;;3.00;1.00;;;;;38.84;18.73;101393.44;5077954;27;45318;-65
2022/11/01 10:18:50;;;;;;;;;1.00;0.80;;;;;39.41;18.39;101393.59;5073150;28;45520;-62
2022/11/01 10:21:18;;;;;;;;;1.00;0.40;;;;;39.40;18.22;101392.75;5026793;28;46174;-61
2022/11/01 10:23:51;;;;;;;;;5.20;1.00;;;;;38.66;18.05;101399.88;5015499;28;45576;-61
2022/11/01 10:26:25;;;;;;;;;1.80;0.40;;;;;37.88;18.92;101403.47;5039085;28;45482;-63
2022/11/01 10:29:13;;;;;;;;;1.60;0.00;;;;;37.62;18.50;101414.38;5073772;27;45496;-62
2022/11/01 10:31:44;;;;;;;;;1.40;1.00;;;;;38.14;18.82;101417.19;5075397;27;45399;-61
2022/11/01 10:34:21;;;;;;;;;0.20;0.20;;;;;38.68;18.48;101407.91;5073674;28;45841;-61
2022/11/01 10:36:49;;;;;;;;;3.00;1.00;;;;;38.58;17.77;101399.81;5070660;27;45535;-62
2022/11/01 10:39:32;;;;;;;;;0.80;0.80;;;;;37.26;18.50;101411.63;5073157;28;45476;-62
2022/11/01 10:42:06;;;;;;;;;3.20;0.80;;;;;37.23;18.80;101406.47;5075365;28;45733;-62
2022/11/01 10:44:40;;;;;;;;;2.00;0.00;;;;;37.97;18.15;101397.06;5077235;28;45378;-61
2022/11/01 10:47:11;;;;;;;;;1.00;1.00;;;;;38.66;17.50;101397.16;5060628;28;45489;-63
2022/11/01 10:49:40;;;;;;;;;1.80;1.80;;;;;39.03;17.85;101393.16;5077530;28;45428;-62
2022/11/01 10:52:10;;;;;;;;;0.40;0.00;;;;;39.33;17.70;101388.09;5076786;28;45528;-62
2022/11/01 10:54:42;;;;;;;;;0.00;0.00;;;;;39.29;17.23;101383.97;5073680;28;45910;-66
2022/11/01 10:57:13;;;;;;;;;2.00;0.80;;;;;39.29;17.51;101384.81;5071011;28;45970;-62
2022/11/01 10:59:45;;;;;;;;;3.80;2.00;;;;;39.63;17.05;101401.16;5076641;27;45516;-61
2022/11/01 11:02:23;;;;;;;;;0.20;0.20;;;;;39.36;17.13;101390.50;5075187;28;46391;-63
2022/11/01 11:04:49;;;;;;;;;2.00;1.00;;;;;37.75;18.40;101397.56;5072641;28;45472;-62
2022/11/01 11:07:17;;;;;;;;;0.00;0.00;;;;;37.09;19.33;101394.22;5057431;28;45536;-63
2022/11/01 11:09:43;;;;;;;;;5.00;0.80;;;;;37.16;19.00;101401.78;5076809;28;45271;-65
2022/11/01 11:12:17;;;;;;;;;1.50;1.00;;;;;35.73;20.00;101411.00;5072376;28;45465;-61
2022/11/01 11:14:50;;;;;;;;;1.40;1.00;;;;;35.49;20.02;101413.28;5072744;28;45818;-62
2022/11/01 11:17:23;;;;;;;;;0.00;0.00;;;;;35.46;19.67;101425.34;5075270;28;45474;-63
2022/11/01 11:19:52;;;;;;;;;2.20;1.20;;;;;36.13;19.50;101423.59;5077261;28;45532;-66
2022/11/01 11:22:21;;;;;;;;;2.20;0.20;;;;;36.54;19.40;101426.06;5080304;27;46300;-62
2022/11/01 11:24:48;;;;;;;;;1.40;1.00;;;;;35.48;20.30;101431.50;5079401;28;45574;-62
2022/11/01 11:27:18;;;;;;;;;2.80;1.00;;;;;32.60;23.09;101405.59;5076265;28;45438;-61
2022/11/01 11:29:48;;;;;;;;;3.00;1.20;;;;;31.04;24.74;101413.91;5076102;28;45382;-62
2022/11/01 11:32:20;;;;;;;;;1.20;1.20;;;;;31.38;24.32;101403.28;5075574;28;45581;-62
2022/11/01 11:34:55;;;;;;;;;2.40;1.20;;;;;29.78;26.43;101385.84;5075325;27;45378;-61
2022/11/01 11:37:24;;;;;;;;;4.00;0.60;;;;;27.41;29.33;101396.28;5070155;28;45457;-63
2022/11/01 11:40:26;;;;;;;;;1.60;1.00;;;;;27.09;30.53;101407.03;5075961;27;45578;-62